Time;durP1;ratioP1;P1;durP2;ratioP2;P2;SDS_P1;SDS_P2;PMS_P1;PMS_P2;Temp;Humidity;BMP_temperature;BMP_pressure;BME280_temperature;BME280_humidity;BME280_pressure;Samples;Min_cycle;Max_cycle;Signal;HPM_P1;HPM_P2
2023/10/31 00:01:20;;;;;;;4.32;2.05;;;;;;;;;;5067986;28;20053;-71
2023/10/31 00:03:46;;;;;;;4.43;1.30;;;;;;;;;;5073333;28;20056;-71
2023/10/31 00:06:13;;;;;;;3.20;1.10;;;;;;;;;;5073555;28;20046;-71
2023/10/31 00:08:39;;;;;;;4.38;0.95;;;;;;;;;;5068033;28;20048;-72
2023/10/31 00:11:06;;;;;;;4.45;1.73;;;;;;;;;;5088757;28;20098;-73
2023/10/31 00:13:32;;;;;;;4.60;1.65;;;;;;;;;;5072914;28;20124;-72
2023/10/31 00:15:59;;;;;;;3.83;1.60;;;;;;;;;;5072633;28;20044;-72
2023/10/31 00:18:25;;;;;;;5.75;2.63;;;;;;;;;;5076846;28;20171;-73
2023/10/31 00:20:51;;;;;;;6.15;2.40;;;;;;;;;;5078757;28;20448;-73
2023/10/31 00:23:18;;;;;;;5.88;2.42;;;;;;;;;;5079348;28;20132;-72
2023/10/31 00:25:44;;;;;;;4.30;2.08;;;;;;;;;;5067496;28;20147;-73
2023/10/31 00:28:11;;;;;;;2.55;1.63;;;;;;;;;;5080109;28;20235;-72
2023/10/31 00:30:37;;;;;;;2.25;1.20;;;;;;;;;;5065494;28;20041;-72
2023/10/31 00:33:03;;;;;;;2.78;1.23;;;;;;;;;;5074658;28;20080;-72
2023/10/31 00:35:30;;;;;;;2.17;0.90;;;;;;;;;;5068156;28;20453;-73
2023/10/31 00:37:57;;;;;;;3.08;1.00;;;;;;;;;;5067583;28;20102;-72
2023/10/31 00:40:23;;;;;;;1.40;0.95;;;;;;;;;;5060784;28;20668;-71
2023/10/31 00:42:50;;;;;;;2.60;1.17;;;;;;;;;;5075537;28;20060;-72
2023/10/31 00:45:16;;;;;;;2.20;0.90;;;;;;;;;;5076193;28;20079;-72
2023/10/31 00:47:42;;;;;;;1.92;1.02;;;;;;;;;;5075954;28;20962;-72
2023/10/31 00:50:09;;;;;;;3.28;1.40;;;;;;;;;;5080413;28;20043;-72
2023/10/31 00:52:35;;;;;;;3.08;1.10;;;;;;;;;;5081006;28;20059;-73
2023/10/31 00:55:02;;;;;;;2.15;0.90;;;;;;;;;;5061635;28;20475;-72
2023/10/31 00:57:29;;;;;;;1.70;1.02;;;;;;;;;;5064928;28;20048;-71
2023/10/31 00:59:56;;;;;;;3.00;1.30;;;;;;;;;;5068746;28;20052;-72
2023/10/31 01:02:22;;;;;;;6.88;1.30;;;;;;;;;;5080924;28;20058;-72
2023/10/31 01:04:49;;;;;;;3.60;1.20;;;;;;;;;;5070608;28;20671;-72
2023/10/31 01:07:17;;;;;;;4.07;1.05;;;;;;;;;;5069478;28;20183;-73
2023/10/31 01:09:44;;;;;;;5.00;1.47;;;;;;;;;;5084344;28;20130;-71
2023/10/31 01:12:11;;;;;;;5.43;1.58;;;;;;;;;;5084157;28;20052;-72
2023/10/31 01:14:37;;;;;;;4.63;2.05;;;;;;;;;;5081007;28;20051;-72
2023/10/31 01:17:04;;;;;;;6.65;2.78;;;;;;;;;;5071417;28;20090;-71
2023/10/31 01:19:30;;;;;;;8.10;3.45;;;;;;;;;;5071635;28;20516;-71
2023/10/31 01:21:57;;;;;;;11.63;4.80;;;;;;;;;;5077571;28;20036;-72
2023/10/31 01:24:23;;;;;;;8.85;4.72;;;;;;;;;;5080663;28;20044;-73
2023/10/31 01:26:50;;;;;;;8.80;4.78;;;;;;;;;;5079817;28;20060;-71
2023/10/31 01:29:17;;;;;;;11.57;6.07;;;;;;;;;;5073622;28;20101;-71
2023/10/31 01:31:43;;;;;;;10.43;6.35;;;;;;;;;;5081348;28;20048;-73
2023/10/31 01:34:24;;;;;;;11.90;7.00;;;;;;;;;;5068480;28;20159;-72
2023/10/31 01:36:51;;;;;;;13.90;7.93;;;;;;;;;;5069110;28;20056;-72
2023/10/31 01:39:18;;;;;;;12.25;6.85;;;;;;;;;;5078508;28;20076;-73
2023/10/31 01:41:45;;;;;;;12.07;7.43;;;;;;;;;;5068451;28;20052;-71
2023/10/31 01:44:11;;;;;;;12.95;7.20;;;;;;;;;;5062888;28;20082;-72
2023/10/31 01:46:38;;;;;;;12.20;7.47;;;;;;;;;;5082289;28;20058;-71
2023/10/31 01:49:05;;;;;;;13.63;7.82;;;;;;;;;;5064545;28;20051;-71
2023/10/31 01:51:31;;;;;;;12.55;7.75;;;;;;;;;;5070909;28;20143;-72
2023/10/31 01:53:57;;;;;;;18.70;8.75;;;;;;;;;;5063880;28;20075;-71
2023/10/31 01:56:25;;;;;;;15.20;9.00;;;;;;;;;;5079543;28;20054;-72
2023/10/31 01:58:52;;;;;;;17.30;9.77;;;;;;;;;;5076123;28;20115;-72
2023/10/31 02:01:19;;;;;;;15.07;10.13;;;;;;;;;;5073280;28;20285;-72
2023/10/31 02:03:46;;;;;;;23.00;12.02;;;;;;;;;;5079482;28;20072;-71
2023/10/31 02:06:12;;;;;;;19.65;11.77;;;;;;;;;;5081990;28;20044;-72
2023/10/31 02:08:39;;;;;;;18.42;10.70;;;;;;;;;;5071956;28;20045;-72
2023/10/31 02:11:09;;;;;;;16.33;11.18;;;;;;;;;;5093893;28;20048;-70
2023/10/31 02:13:37;;;;;;;15.15;10.30;;;;;;;;;;5077831;28;20060;-72
2023/10/31 02:16:04;;;;;;;16.43;9.33;;;;;;;;;;5089693;28;20112;-72
2023/10/31 02:18:31;;;;;;;15.57;9.10;;;;;;;;;;5093976;28;20044;-72
2023/10/31 02:20:58;;;;;;;15.63;8.85;;;;;;;;;;5089436;28;20052;-72
2023/10/31 02:23:24;;;;;;;14.43;9.02;;;;;;;;;;5075097;28;20098;-71
2023/10/31 02:25:51;;;;;;;17.55;8.45;;;;;;;;;;5079976;28;20559;-72
2023/10/31 02:28:17;;;;;;;13.60;8.25;;;;;;;;;;5077572;28;20048;-70
2023/10/31 02:30:44;;;;;;;10.57;6.95;;;;;;;;;;5086301;28;20147;-71
2023/10/31 02:33:10;;;;;;;13.48;7.40;;;;;;;;;;5106536;28;20458;-72
2023/10/31 02:35:37;;;;;;;11.38;7.55;;;;;;;;;;5089117;28;20620;-72
2023/10/31 02:38:03;;;;;;;13.85;7.85;;;;;;;;;;5076351;28;20092;-71
2023/10/31 02:40:30;;;;;;;13.60;8.00;;;;;;;;;;5097382;28;20051;-71
2023/10/31 02:42:56;;;;;;;16.02;8.32;;;;;;;;;;5086403;28;20550;-72
2023/10/31 02:45:22;;;;;;;13.40;8.30;;;;;;;;;;5106311;28;20044;-72
2023/10/31 02:47:49;;;;;;;14.93;9.07;;;;;;;;;;5091389;28;20080;-72
2023/10/31 02:50:15;;;;;;;16.48;9.23;;;;;;;;;;5095572;28;20047;-71
2023/10/31 02:52:42;;;;;;;17.63;9.52;;;;;;;;;;5088816;28;20055;-71
2023/10/31 02:55:08;;;;;;;14.40;8.80;;;;;;;;;;5090418;28;20503;-71
2023/10/31 02:57:35;;;;;;;14.55;9.82;;;;;;;;;;5090078;28;20051;-72
2023/10/31 03:00:02;;;;;;;14.63;9.70;;;;;;;;;;5091478;28;20059;-71
2023/10/31 03:02:29;;;;;;;18.73;10.65;;;;;;;;;;5088046;28;20505;-71
2023/10/31 03:04:56;;;;;;;16.20;9.52;;;;;;;;;;5102335;28;20109;-71
2023/10/31 03:07:22;;;;;;;14.52;9.60;;;;;;;;;;5094353;28;20134;-71
2023/10/31 03:09:49;;;;;;;15.63;9.57;;;;;;;;;;5093136;28;20074;-72
2023/10/31 03:12:15;;;;;;;14.07;9.57;;;;;;;;;;5082904;28;20785;-72
2023/10/31 03:14:42;;;;;;;20.20;10.68;;;;;;;;;;5087023;28;20087;-73
2023/10/31 03:17:08;;;;;;;17.77;10.63;;;;;;;;;;5086684;28;20044;-73
2023/10/31 03:19:35;;;;;;;15.65;10.52;;;;;;;;;;5085450;28;20520;-72
2023/10/31 03:22:01;;;;;;;17.85;11.20;;;;;;;;;;5099726;28;20067;-71
2023/10/31 03:24:28;;;;;;;14.07;10.00;;;;;;;;;;5105177;28;20666;-72
2023/10/31 03:26:55;;;;;;;16.98;10.93;;;;;;;;;;5083565;28;20055;-71
2023/10/31 03:29:21;;;;;;;15.77;10.13;;;;;;;;;;5092021;28;20051;-71
2023/10/31 03:31:48;;;;;;;18.65;11.65;;;;;;;;;;5086386;28;20059;-72
2023/10/31 03:34:14;;;;;;;20.33;12.02;;;;;;;;;;5086391;28;20456;-72
2023/10/31 03:36:40;;;;;;;18.58;12.15;;;;;;;;;;5105239;28;20093;-72
2023/10/31 03:39:07;;;;;;;18.52;11.52;;;;;;;;;;5085868;28;20048;-73
2023/10/31 03:41:34;;;;;;;15.48;11.10;;;;;;;;;;5095500;28;20059;-73
2023/10/31 03:44:00;;;;;;;18.15;11.70;;;;;;;;;;5080429;28;20062;-72
2023/10/31 03:46:27;;;;;;;18.40;11.05;;;;;;;;;;5071891;28;20059;-72
2023/10/31 03:48:53;;;;;;;18.30;10.55;;;;;;;;;;5100692;27;20184;-73
2023/10/31 03:51:20;;;;;;;16.67;11.20;;;;;;;;;;5085987;28;20117;-72
2023/10/31 03:53:46;;;;;;;16.45;11.18;;;;;;;;;;5088195;28;20110;-72
2023/10/31 03:56:12;;;;;;;17.73;11.13;;;;;;;;;;5094001;28;20467;-72
2023/10/31 03:58:40;;;;;;;13.63;10.48;;;;;;;;;;5105007;28;20075;-72
2023/10/31 04:01:06;;;;;;;14.93;10.88;;;;;;;;;;5085622;28;20051;-72
2023/10/31 04:03:33;;;;;;;14.95;10.35;;;;;;;;;;5074022;28;20135;-72
2023/10/31 04:05:59;;;;;;;15.88;9.63;;;;;;;;;;5097712;28;20047;-72
2023/10/31 04:08:25;;;;;;;12.18;8.27;;;;;;;;;;5066502;28;20044;-71
2023/10/31 04:10:55;;;;;;;15.90;8.82;;;;;;;;;;5079408;28;20059;-72
2023/10/31 04:13:21;;;;;;;13.07;6.93;;;;;;;;;;5097540;28;20130;-73
2023/10/31 04:15:48;;;;;;;10.00;6.57;;;;;;;;;;5089398;28;20149;-72
2023/10/31 04:18:14;;;;;;;10.15;5.78;;;;;;;;;;5079840;28;20464;-72
2023/10/31 04:20:41;;;;;;;10.80;5.38;;;;;;;;;;5084062;28;20052;-72
2023/10/31 04:23:08;;;;;;;8.18;4.78;;;;;;;;;;5078665;28;20263;-71
2023/10/31 04:25:34;;;;;;;8.20;4.30;;;;;;;;;;5083566;28;20477;-72
2023/10/31 04:28:00;;;;;;;7.32;4.30;;;;;;;;;;5084401;28;20121;-72
2023/10/31 04:30:27;;;;;;;6.88;3.80;;;;;;;;;;5078953;28;20173;-72
2023/10/31 04:32:54;;;;;;;7.57;4.18;;;;;;;;;;5096150;27;20048;-72
2023/10/31 04:35:20;;;;;;;10.10;4.53;;;;;;;;;;5094592;28;20070;-72
2023/10/31 04:37:47;;;;;;;7.05;3.78;;;;;;;;;;5080625;28;20476;-73
2023/10/31 04:40:13;;;;;;;8.77;4.20;;;;;;;;;;5083683;28;20075;-71
2023/10/31 04:42:40;;;;;;;8.50;4.32;;;;;;;;;;5070898;28;20061;-72
2023/10/31 04:45:07;;;;;;;6.40;3.92;;;;;;;;;;5103523;28;20282;-73
2023/10/31 04:47:34;;;;;;;7.13;4.05;;;;;;;;;;5069060;28;20127;-71
2023/10/31 04:50:01;;;;;;;7.93;4.85;;;;;;;;;;5084654;28;20051;-71
2023/10/31 04:52:27;;;;;;;8.98;4.40;;;;;;;;;;5084793;28;20911;-72
2023/10/31 04:54:54;;;;;;;12.25;5.57;;;;;;;;;;5095944;28;20054;-71
2023/10/31 04:57:20;;;;;;;8.35;4.60;;;;;;;;;;5086930;28;20121;-72
2023/10/31 04:59:46;;;;;;;8.00;4.65;;;;;;;;;;5074230;28;20047;-72
2023/10/31 05:02:13;;;;;;;9.73;5.85;;;;;;;;;;5089349;28;20101;-73
2023/10/31 05:04:40;;;;;;;9.88;6.47;;;;;;;;;;5100186;28;20444;-72
2023/10/31 05:07:08;;;;;;;10.52;5.63;;;;;;;;;;5102873;27;20077;-73
2023/10/31 05:09:35;;;;;;;9.90;6.20;;;;;;;;;;5098085;27;20054;-73
2023/10/31 05:12:01;;;;;;;10.57;6.47;;;;;;;;;;5102845;28;20051;-72
2023/10/31 05:14:28;;;;;;;10.00;7.13;;;;;;;;;;5071420;28;20044;-73
2023/10/31 05:16:54;;;;;;;11.50;7.45;;;;;;;;;;5094693;28;20048;-73
2023/10/31 05:19:21;;;;;;;9.07;6.28;;;;;;;;;;5076667;28;20071;-73
2023/10/31 05:21:47;;;;;;;9.50;6.32;;;;;;;;;;5090636;28;20048;-73
2023/10/31 05:24:14;;;;;;;12.27;6.50;;;;;;;;;;5086956;28;20075;-73
2023/10/31 05:26:42;;;;;;;13.60;7.00;;;;;;;;;;5073217;28;20059;-72
2023/10/31 05:29:09;;;;;;;;;;;;;;;;;;5074776;28;20887;-72
2023/10/31 05:31:35;;;;;;;11.70;6.43;;;;;;;;;;5080173;28;19964;-72
2023/10/31 05:34:03;;;;;;;10.52;6.75;;;;;;;;;;5101508;28;20044;-73
2023/10/31 05:36:30;;;;;;;8.85;6.70;;;;;;;;;;5102596;28;20052;-72
2023/10/31 05:38:56;;;;;;;10.13;6.65;;;;;;;;;;5102143;28;20105;-74
2023/10/31 05:41:23;;;;;;;9.95;6.15;;;;;;;;;;5074331;28;20047;-72
2023/10/31 05:43:49;;;;;;;10.10;6.78;;;;;;;;;;5072351;28;20717;-73
2023/10/31 05:46:16;;;;;;;12.80;6.13;;;;;;;;;;5094224;28;20480;-72
2023/10/31 05:48:44;;;;;;;9.02;5.55;;;;;;;;;;5083306;28;20130;-73
2023/10/31 05:51:14;;;;;;;8.43;4.90;;;;;;;;;;5083528;28;20109;-72
2023/10/31 05:53:41;;;;;;;9.25;5.13;;;;;;;;;;5098510;28;20059;-72
2023/10/31 05:56:08;;;;;;;6.53;3.70;;;;;;;;;;5093420;28;20056;-74
2023/10/31 05:58:36;;;;;;;10.95;4.28;;;;;;;;;;5095982;28;20063;-73
2023/10/31 06:01:03;;;;;;;10.15;4.28;;;;;;;;;;5082343;28;20048;-72
2023/10/31 06:03:29;;;;;;;6.00;3.42;;;;;;;;;;5106633;28;20724;-72
2023/10/31 06:05:56;;;;;;;5.18;2.75;;;;;;;;;;5096614;28;20050;-72
2023/10/31 06:08:24;;;;;;;5.97;3.17;;;;;;;;;;5095443;28;20044;-72
2023/10/31 06:10:50;;;;;;;6.00;2.97;;;;;;;;;;5092629;28;20610;-72
2023/10/31 06:13:17;;;;;;;5.85;2.95;;;;;;;;;;5093891;28;20324;-72
2023/10/31 06:15:44;;;;;;;4.53;2.97;;;;;;;;;;5076965;28;20044;-73
2023/10/31 06:18:10;;;;;;;3.90;2.60;;;;;;;;;;5095780;28;20899;-72
2023/10/31 06:20:37;;;;;;;3.55;2.35;;;;;;;;;;5082191;28;20044;-73
2023/10/31 06:23:03;;;;;;;4.90;2.40;;;;;;;;;;5090000;28;20101;-72
2023/10/31 06:25:30;;;;;;;6.88;2.10;;;;;;;;;;5087303;28;20496;-72
2023/10/31 06:27:56;;;;;;;3.67;2.30;;;;;;;;;;5077890;28;20048;-71
2023/10/31 06:30:24;;;;;;;4.40;2.10;;;;;;;;;;5101122;28;20055;-72
2023/10/31 06:32:54;;;;;;;3.28;2.10;;;;;;;;;;5094119;28;20146;-72
2023/10/31 06:35:24;;;;;;;5.32;2.30;;;;;;;;;;5094111;28;20123;-73
2023/10/31 06:37:51;;;;;;;6.55;3.35;;;;;;;;;;5086295;28;20489;-73
2023/10/31 06:40:17;;;;;;;5.88;3.13;;;;;;;;;;5098221;28;20059;-72
2023/10/31 06:42:44;;;;;;;12.18;4.40;;;;;;;;;;5081660;28;20131;-73
2023/10/31 06:45:10;;;;;;;10.07;4.72;;;;;;;;;;5086423;28;20051;-72
2023/10/31 06:47:36;;;;;;;9.15;4.75;;;;;;;;;;5104561;28;20131;-74
2023/10/31 06:50:03;;;;;;;10.88;5.75;;;;;;;;;;5077509;28;20056;-73
2023/10/31 06:52:29;;;;;;;9.85;5.47;;;;;;;;;;5094100;27;20056;-72
2023/10/31 06:54:56;;;;;;;12.40;6.68;;;;;;;;;;5099384;28;20054;-73
2023/10/31 06:57:22;;;;;;;13.27;6.93;;;;;;;;;;5103740;27;20050;-73
2023/10/31 06:59:49;;;;;;;15.07;7.75;;;;;;;;;;5080615;28;20614;-74
2023/10/31 07:02:15;;;;;;;13.85;7.32;;;;;;;;;;5098622;28;20044;-73
2023/10/31 07:04:42;;;;;;;12.88;7.93;;;;;;;;;;5089306;28;20036;-73
2023/10/31 07:07:08;;;;;;;14.02;8.45;;;;;;;;;;5084805;28;20080;-73
2023/10/31 07:09:35;;;;;;;15.50;7.97;;;;;;;;;;5079966;28;20075;-73
2023/10/31 07:12:02;;;;;;;10.73;7.28;;;;;;;;;;5095124;28;20599;-72
2023/10/31 07:14:28;;;;;;;12.27;7.50;;;;;;;;;;5081174;28;20070;-73
2023/10/31 07:16:55;;;;;;;12.02;7.60;;;;;;;;;;5082696;28;20104;-73
2023/10/31 07:19:22;;;;;;;14.13;8.43;;;;;;;;;;5082149;28;20047;-74
2023/10/31 07:21:48;;;;;;;13.88;8.27;;;;;;;;;;5105604;28;20120;-73
2023/10/31 07:24:15;;;;;;;15.85;9.77;;;;;;;;;;5101582;28;20043;-73
2023/10/31 07:26:41;;;;;;;15.60;9.80;;;;;;;;;;5099096;28;20101;-72
2023/10/31 07:29:08;;;;;;;18.27;10.82;;;;;;;;;;5086600;28;20043;-73
2023/10/31 07:31:38;;;;;;;19.17;10.82;;;;;;;;;;5087773;28;20055;-73
2023/10/31 07:34:05;;;;;;;16.95;11.02;;;;;;;;;;5095338;28;20139;-74
2023/10/31 07:36:39;;;;;;;19.80;12.18;;;;;;;;;;5105368;28;20055;-72
2023/10/31 07:39:05;;;;;;;18.30;12.50;;;;;;;;;;5101966;28;20082;-73
2023/10/31 07:41:32;;;;;;;20.35;12.68;;;;;;;;;;5086253;28;20117;-73
2023/10/31 07:43:58;;;;;;;19.08;12.90;;;;;;;;;;5086384;28;20043;-73
2023/10/31 07:46:25;;;;;;;20.40;13.55;;;;;;;;;;5095049;28;20056;-73
2023/10/31 07:48:51;;;;;;;21.17;13.80;;;;;;;;;;5071461;28;20129;-73
2023/10/31 07:51:17;;;;;;;19.67;13.18;;;;;;;;;;5103738;28;20047;-73
2023/10/31 07:53:44;;;;;;;20.48;13.52;;;;;;;;;;5088365;28;20408;-73
2023/10/31 07:56:17;;;;;;;17.40;11.88;;;;;;;;;;5076121;28;20055;-72
2023/10/31 07:58:44;;;;;;;20.40;12.90;;;;;;;;;;5084403;28;20093;-73
2023/10/31 08:01:11;;;;;;;19.98;14.20;;;;;;;;;;5103445;28;20474;-73
2023/10/31 08:03:37;;;;;;;18.30;12.63;;;;;;;;;;5073756;28;20058;-73
2023/10/31 08:06:05;;;;;;;19.00;13.82;;;;;;;;;;5102664;28;20051;-72
2023/10/31 08:08:31;;;;;;;17.70;11.65;;;;;;;;;;5079045;28;20139;-72
2023/10/31 08:10:58;;;;;;;16.75;11.77;;;;;;;;;;5096119;28;20120;-73
2023/10/31 08:13:25;;;;;;;16.63;12.38;;;;;;;;;;5085653;28;20048;-73
2023/10/31 08:15:51;;;;;;;19.48;12.65;;;;;;;;;;5074370;28;20160;-72
2023/10/31 08:18:19;;;;;;;18.08;11.65;;;;;;;;;;5095430;28;20129;-74
2023/10/31 08:20:48;;;;;;;18.00;11.55;;;;;;;;;;5080607;28;20047;-73
2023/10/31 08:23:15;;;;;;;18.45;12.57;;;;;;;;;;5103710;28;20480;-74
2023/10/31 08:25:41;;;;;;;16.35;11.88;;;;;;;;;;5100648;28;20043;-73
2023/10/31 08:28:08;;;;;;;15.27;10.85;;;;;;;;;;5086112;28;20648;-73
2023/10/31 08:30:35;;;;;;;13.55;9.57;;;;;;;;;;5101784;28;20048;-72
2023/10/31 08:33:01;;;;;;;14.43;10.15;;;;;;;;;;5103485;28;20054;-72
2023/10/31 08:35:28;;;;;;;14.57;10.48;;;;;;;;;;5098097;28;20570;-72
2023/10/31 08:37:54;;;;;;;18.40;11.40;;;;;;;;;;5094325;28;20051;-73
2023/10/31 08:40:21;;;;;;;14.23;9.25;;;;;;;;;;5096117;28;20579;-73
2023/10/31 08:42:47;;;;;;;13.25;9.65;;;;;;;;;;5085522;28;20132;-73
2023/10/31 08:45:13;;;;;;;13.00;8.52;;;;;;;;;;5079393;28;20124;-72
2023/10/31 08:47:40;;;;;;;11.85;8.57;;;;;;;;;;5094122;28;20056;-73
2023/10/31 08:50:08;;;;;;;13.55;8.60;;;;;;;;;;5066866;28;20113;-72
2023/10/31 08:52:35;;;;;;;11.68;8.13;;;;;;;;;;5103610;28;20050;-72
2023/10/31 08:55:01;;;;;;;14.25;8.55;;;;;;;;;;5097784;28;20073;-72
2023/10/31 08:57:27;;;;;;;11.77;7.63;;;;;;;;;;5077275;28;20047;-73
2023/10/31 08:59:54;;;;;;;12.85;7.82;;;;;;;;;;5104401;27;20036;-71
2023/10/31 09:02:20;;;;;;;11.90;7.38;;;;;;;;;;5097463;28;20124;-72
2023/10/31 09:04:46;;;;;;;12.20;7.70;;;;;;;;;;5090831;28;20047;-71
2023/10/31 09:07:13;;;;;;;10.85;7.82;;;;;;;;;;5104183;28;20109;-71
2023/10/31 09:09:40;;;;;;;16.10;8.13;;;;;;;;;;5091576;28;20048;-72
2023/10/31 09:12:06;;;;;;;12.80;7.13;;;;;;;;;;5104886;28;20052;-72
2023/10/31 09:14:33;;;;;;;12.02;6.70;;;;;;;;;;5091321;28;20055;-72
2023/10/31 09:16:59;;;;;;;14.23;7.22;;;;;;;;;;5095373;28;20056;-73
2023/10/31 09:19:25;;;;;;;10.68;7.57;;;;;;;;;;5097007;28;20048;-73
2023/10/31 09:21:52;;;;;;;12.35;6.80;;;;;;;;;;5104351;28;20055;-72
2023/10/31 09:24:18;;;;;;;13.52;7.82;;;;;;;;;;5089383;28;20086;-72
2023/10/31 09:26:45;;;;;;;11.60;6.82;;;;;;;;;;5085620;28;20056;-71
2023/10/31 09:29:11;;;;;;;14.18;7.07;;;;;;;;;;5097941;28;20052;-74
2023/10/31 09:31:53;;;;;;;10.32;6.80;;;;;;;;;;5088649;28;20455;-71
2023/10/31 09:34:20;;;;;;;12.73;6.85;;;;;;;;;;5101300;28;20143;-71
2023/10/31 09:36:46;;;;;;;9.13;6.53;;;;;;;;;;5100884;28;20075;-71
2023/10/31 09:39:12;;;;;;;11.57;7.07;;;;;;;;;;5096721;28;20112;-71
2023/10/31 09:41:39;;;;;;;13.63;8.52;;;;;;;;;;5079402;28;20044;-71
2023/10/31 09:44:06;;;;;;;11.75;7.63;;;;;;;;;;5088725;28;20089;-71
2023/10/31 09:46:32;;;;;;;13.90;9.02;;;;;;;;;;5095607;28;20085;-71
2023/10/31 09:48:59;;;;;;;13.73;9.27;;;;;;;;;;5080811;28;20048;-72
2023/10/31 09:51:26;;;;;;;13.65;9.20;;;;;;;;;;5084339;28;20492;-72
2023/10/31 09:53:54;;;;;;;14.93;10.05;;;;;;;;;;5101573;28;20050;-72
2023/10/31 09:56:21;;;;;;;17.90;11.43;;;;;;;;;;5093128;28;20123;-71
2023/10/31 09:58:47;;;;;;;16.05;10.38;;;;;;;;;;5095740;28;20044;-73
2023/10/31 10:01:14;;;;;;;16.38;11.63;;;;;;;;;;5082913;28;20416;-71
2023/10/31 10:03:41;;;;;;;17.05;12.48;;;;;;;;;;5097343;28;20055;-71
2023/10/31 10:06:09;;;;;;;17.75;12.18;;;;;;;;;;5101936;28;20452;-72
2023/10/31 10:08:37;;;;;;;18.60;11.40;;;;;;;;;;5091445;28;20734;-71
2023/10/31 10:11:03;;;;;;;18.33;11.43;;;;;;;;;;5099735;28;20051;-71
2023/10/31 10:13:30;;;;;;;16.10;10.55;;;;;;;;;;5100924;28;20047;-71
2023/10/31 10:15:56;;;;;;;15.02;10.02;;;;;;;;;;5098279;28;20105;-71
2023/10/31 10:18:29;;;;;;;13.90;10.00;;;;;;;;;;5082945;28;20070;-71
2023/10/31 10:20:59;;;;;;;18.55;10.27;;;;;;;;;;5085138;28;20114;-71
2023/10/31 10:23:26;;;;;;;16.80;9.13;;;;;;;;;;5091495;28;20472;-71
2023/10/31 10:25:54;;;;;;;11.23;8.27;;;;;;;;;;5100542;28;20051;-71
2023/10/31 10:28:20;;;;;;;13.88;8.75;;;;;;;;;;5101688;28;20079;-71
2023/10/31 10:30:48;;;;;;;15.80;8.13;;;;;;;;;;5097624;28;20124;-72
2023/10/31 10:33:15;;;;;;;12.57;8.43;;;;;;;;;;5085985;28;20101;-71
2023/10/31 10:35:41;;;;;;;10.52;7.35;;;;;;;;;;5095993;28;20874;-72
2023/10/31 10:38:11;;;;;;;13.10;7.43;;;;;;;;;;5084027;28;20115;-72
2023/10/31 10:40:39;;;;;;;11.30;6.97;;;;;;;;;;5088355;28;20048;-72
2023/10/31 10:43:08;;;;;;;;;;;;;;;;;;5102680;28;20133;-70
2023/10/31 10:45:38;;;;;;;11.70;7.05;;;;;;;;;;5087662;28;20106;-72
2023/10/31 10:48:06;;;;;;;13.95;7.75;;;;;;;;;;5083929;28;20052;-71
2023/10/31 10:50:34;;;;;;;13.02;7.35;;;;;;;;;;5101576;28;20146;-71
2023/10/31 10:53:08;;;;;;;16.08;7.85;;;;;;;;;;5099712;28;20075;-71
2023/10/31 10:55:38;;;;;;;10.27;6.93;;;;;;;;;;5091340;28;20066;-71
2023/10/31 10:58:08;;;;;;;13.00;6.82;;;;;;;;;;5108204;27;20725;-71
2023/10/31 11:00:34;;;;;;;12.40;7.35;;;;;;;;;;5094026;28;20048;-72
2023/10/31 11:03:01;;;;;;;15.15;8.25;;;;;;;;;;5080192;28;20047;-71
2023/10/31 11:05:28;;;;;;;10.77;7.07;;;;;;;;;;5085303;27;20044;-72
2023/10/31 11:07:57;;;;;;;19.05;7.60;;;;;;;;;;5101191;28;20061;-71
2023/10/31 11:10:25;;;;;;;14.48;8.27;;;;;;;;;;5104764;28;20051;-71
2023/10/31 11:12:53;;;;;;;17.13;8.23;;;;;;;;;;5093773;28;20131;-72
2023/10/31 11:15:19;;;;;;;15.23;9.70;;;;;;;;;;5085153;28;20517;-72
2023/10/31 11:17:47;;;;;;;13.27;10.02;;;;;;;;;;5107733;27;20478;-71
2023/10/31 11:20:15;;;;;;;14.48;11.10;;;;;;;;;;5102551;27;20052;-71
2023/10/31 11:22:45;;;;;;;17.95;11.43;;;;;;;;;;5082481;28;20487;-71
2023/10/31 11:25:15;;;;;;;22.20;15.45;;;;;;;;;;5088787;28;20444;-71
2023/10/31 11:27:57;;;;;;;24.55;17.00;;;;;;;;;;5100488;28;20492;-71
2023/10/31 11:30:31;;;;;;;24.63;16.42;;;;;;;;;;5101938;28;20135;-72
2023/10/31 11:32:59;;;;;;;20.05;14.93;;;;;;;;;;5103707;28;20058;-71
2023/10/31 11:35:29;;;;;;;21.27;15.50;;;;;;;;;;5082139;28;20051;-71
2023/10/31 11:38:03;;;;;;;22.27;15.57;;;;;;;;;;5088927;28;20084;-71
2023/10/31 11:40:30;;;;;;;24.40;16.40;;;;;;;;;;5069933;28;20043;-71
2023/10/31 11:42:58;;;;;;;23.35;16.25;;;;;;;;;;5098270;28;20044;-72
2023/10/31 11:45:28;;;;;;;21.80;14.80;;;;;;;;;;5091254;28;20039;-72
2023/10/31 11:47:55;;;;;;;24.48;16.27;;;;;;;;;;5079708;28;20489;-71
2023/10/31 11:50:22;;;;;;;21.83;16.55;;;;;;;;;;5097360;28;20105;-72
2023/10/31 11:53:00;;;;;;;26.17;16.77;;;;;;;;;;5087970;28;20048;-71
2023/10/31 11:55:27;;;;;;;22.15;16.02;;;;;;;;;;5100933;28;20090;-73
2023/10/31 11:57:53;;;;;;;22.08;16.17;;;;;;;;;;5080956;28;20047;-72
2023/10/31 12:00:21;;;;;;;23.13;14.68;;;;;;;;;;5091763;28;20048;-71
2023/10/31 12:02:58;;;;;;;20.70;14.10;;;;;;;;;;5086392;28;20058;-71
2023/10/31 12:05:25;;;;;;;23.63;14.35;;;;;;;;;;5087005;28;20055;-71
2023/10/31 12:07:51;;;;;;;22.85;14.00;;;;;;;;;;5085157;28;20044;-73
2023/10/31 12:10:25;;;;;;;22.50;15.82;;;;;;;;;;5095807;28;20083;-73
2023/10/31 12:12:51;;;;;;;21.67;14.43;;;;;;;;;;5085759;28;20053;-73
2023/10/31 12:15:18;;;;;;;23.00;15.30;;;;;;;;;;5075994;28;20059;-74
2023/10/31 12:17:44;;;;;;;24.60;14.23;;;;;;;;;;5097667;28;20048;-73
2023/10/31 12:20:11;;;;;;;26.77;16.25;;;;;;;;;;5086306;28;20043;-73
2023/10/31 12:22:39;;;;;;;24.75;14.48;;;;;;;;;;5091696;28;20044;-73
2023/10/31 12:25:09;;;;;;;27.23;13.85;;;;;;;;;;5074635;28;20803;-73
2023/10/31 12:27:43;;;;;;;26.23;14.95;;;;;;;;;;5084728;28;20510;-72
2023/10/31 12:30:10;;;;;;;22.73;12.43;;;;;;;;;;5091112;28;20075;-73
2023/10/31 12:32:36;;;;;;;20.63;11.77;;;;;;;;;;5100844;28;20086;-73
2023/10/31 12:35:03;;;;;;;22.02;12.65;;;;;;;;;;5099328;28;20067;-74
2023/10/31 12:37:33;;;;;;;20.30;12.15;;;;;;;;;;5085509;28;21375;-73
2023/10/31 12:40:03;;;;;;;33.33;14.48;;;;;;;;;;5086765;28;20722;-73
2023/10/31 12:42:31;;;;;;;24.38;14.02;;;;;;;;;;5088137;28;20059;-74
2023/10/31 12:44:59;;;;;;;22.13;12.82;;;;;;;;;;5103821;28;20071;-73
2023/10/31 12:47:25;;;;;;;24.73;13.43;;;;;;;;;;5102483;28;20081;-72
2023/10/31 12:50:10;;;;;;;23.30;12.57;;;;;;;;;;5092445;28;20127;-72
2023/10/31 12:52:50;;;;;;;22.23;12.90;;;;;;;;;;5073262;28;20083;-71
2023/10/31 12:55:18;;;;;;;26.02;14.18;;;;;;;;;;5096718;28;20048;-72
2023/10/31 12:57:46;;;;;;;23.38;13.07;;;;;;;;;;5078925;28;20075;-72
2023/10/31 13:00:13;;;;;;;24.77;14.65;;;;;;;;;;5078180;28;20144;-72
2023/10/31 13:02:40;;;;;;;26.20;13.32;;;;;;;;;;5096554;28;20056;-72
2023/10/31 13:05:08;;;;;;;26.55;14.95;;;;;;;;;;5084896;28;20231;-72
2023/10/31 13:07:34;;;;;;;23.45;13.40;;;;;;;;;;5084699;28;20509;-71
2023/10/31 13:10:01;;;;;;;28.48;14.55;;;;;;;;;;5091942;28;20056;-72
2023/10/31 13:12:29;;;;;;;28.50;14.88;;;;;;;;;;5083460;28;20051;-72
2023/10/31 13:14:56;;;;;;;26.30;15.73;;;;;;;;;;5101283;28;20055;-72
2023/10/31 13:17:22;;;;;;;25.73;16.02;;;;;;;;;;5077130;28;20472;-72
2023/10/31 13:19:48;;;;;;;26.52;15.50;;;;;;;;;;5102575;28;20055;-72
2023/10/31 13:22:15;;;;;;;24.10;14.70;;;;;;;;;;5082171;28;20044;-72
2023/10/31 13:24:42;;;;;;;22.00;14.55;;;;;;;;;;5076934;28;20055;-72
2023/10/31 13:27:14;;;;;;;22.45;13.68;;;;;;;;;;5093806;28;20054;-72
2023/10/31 13:29:40;;;;;;;24.50;14.82;;;;;;;;;;5084335;28;20554;-72
2023/10/31 13:32:08;;;;;;;22.15;13.85;;;;;;;;;;5088406;28;20062;-73
2023/10/31 13:34:34;;;;;;;23.90;14.32;;;;;;;;;;5098410;28;20047;-74
2023/10/31 13:37:02;;;;;;;22.63;14.30;;;;;;;;;;5103008;28;20039;-73
2023/10/31 13:39:28;;;;;;;22.52;14.02;;;;;;;;;;5102263;28;20070;-73
2023/10/31 13:41:55;;;;;;;20.75;13.98;;;;;;;;;;5090730;28;20048;-72
2023/10/31 13:44:21;;;;;;;23.33;13.25;;;;;;;;;;5096592;28;20078;-73
2023/10/31 13:46:48;;;;;;;20.60;14.18;;;;;;;;;;5103490;28;20142;-73
2023/10/31 13:49:14;;;;;;;21.38;13.52;;;;;;;;;;5090103;28;20047;-73
2023/10/31 13:51:40;;;;;;;24.70;12.15;;;;;;;;;;5077668;28;20059;-73
2023/10/31 13:54:07;;;;;;;19.98;12.00;;;;;;;;;;5101472;28;20048;-74
2023/10/31 13:56:34;;;;;;;19.85;12.70;;;;;;;;;;5093635;28;21118;-74
2023/10/31 13:59:01;;;;;;;16.07;10.30;;;;;;;;;;5093119;28;20048;-73
2023/10/31 14:01:28;;;;;;;22.27;12.20;;;;;;;;;;5068213;28;20070;-74
2023/10/31 14:03:56;;;;;;;20.97;11.20;;;;;;;;;;5085205;28;20040;-73
2023/10/31 14:06:25;;;;;;;17.23;9.85;;;;;;;;;;5101996;28;20296;-74
2023/10/31 14:08:51;;;;;;;15.45;9.75;;;;;;;;;;5100361;28;20642;-74
2023/10/31 14:11:18;;;;;;;14.80;9.80;;;;;;;;;;5066300;28;20047;-74
2023/10/31 14:13:44;;;;;;;15.85;10.88;;;;;;;;;;5093117;28;20055;-74
2023/10/31 14:16:12;;;;;;;15.68;9.68;;;;;;;;;;5101914;28;20039;-73
2023/10/31 14:18:39;;;;;;;17.13;10.02;;;;;;;;;;5093950;28;20074;-73
2023/10/31 14:21:05;;;;;;;15.48;9.88;;;;;;;;;;5097983;28;20062;-73
2023/10/31 14:23:31;;;;;;;15.63;9.95;;;;;;;;;;5070028;28;20071;-73
2023/10/31 14:25:58;;;;;;;15.48;10.38;;;;;;;;;;5086538;28;20044;-74
2023/10/31 14:28:25;;;;;;;20.75;10.77;;;;;;;;;;5096313;28;20062;-73